Archival Weather

Sydney Intl

Sydney, Australia (YSSY)

Report from: Sunday, February 25, 2024 5:30 AM AEDT
Current time: Thursday, April 25, 2024 5:51 AM AEST

Current weather – Weather history – Daily summaries
Weather forecast

Temperature16.0°C (60.8°F)
Dew point14.0°C (57.2°F)
Winds 8 kts (4.1 m/s, 9.2 mph) West-Northwest (300°)
Visibility6.2 mi. (10 km)
Clouds Sky clear
Altimeter30.06 in.Hg (1018 mB)
Relative humidity88 %
Density altitude179 ft. (55 m)
Remarks Fully automated report
No clouds detected
Flight conditions Visual Meteorological Conditions
Raw dataYSSY 241830Z AUTO 30008KT 9999 // NCD 16/14 Q1018 RF00.0/000.0
An error has occurred. This application may no longer respond until reloaded. Reload 🗙